Barry Lakes, New Jersey
Current Conditions -  °F | °C
As of 10:17 AM on Wednesday 22 Oct 2014 (Local Time) from KFWN Reporting Station
Overcast Overcast  
Wind Chill: 54°   Ceiling: 1500
Heat Index: 54°   Visibility: 10mi
Dew Point: 48°   Wind: 9mph
Humidity: 80%   Direction: 60°ENE
Pressure: 29.98"   Gusts: NA
Location:  41.189°N, 74.4273°W
Report Text: KFWN 221417Z AUTO 06008KT 10SM OVC015 12/09 A2998 RMK AO2 T01220089
Loading
Personal Weather Stations






























Interactive Weather Map
Tropical Storm Tracking
New forecast layout! Learn more

10-Day Weather Forecast

Advertisements
Track Severe Weather on mobile